Time;durP1;ratioP1;P1;durP2;ratioP2;P2;SDS_P1;SDS_P2;PMS_P1;PMS_P2;Temp;Humidity;BMP_temperature;BMP_pressure;BME280_temperature;BME280_humidity;BME280_pressure;Samples;Min_cycle;Max_cycle;Signal;HPM_P1;HPM_P2
2023/09/05 00:01:59;;;;;;;0.20;0.20;;;17.60;99.90;;;;;;4936330;28;20042;-70
2023/09/05 00:04:25;;;;;;;0.10;0.10;;;17.60;99.90;;;;;;4963906;28;20069;-70
2023/09/05 00:06:50;;;;;;;0.22;0.22;;;17.50;99.90;;;;;;4922927;28;20049;-70
2023/09/05 00:09:18;;;;;;;0.38;0.38;;;17.50;99.90;;;;;;4902793;28;20052;-70
2023/09/05 00:11:46;;;;;;;0.30;0.30;;;17.50;99.90;;;;;;4932250;28;20044;-70
2023/09/05 00:14:13;;;;;;;0.08;0.08;;;17.50;99.90;;;;;;4942809;28;20048;-70
2023/09/05 00:16:38;;;;;;;0.20;0.20;;;17.60;99.90;;;;;;4924728;28;20485;-70
2023/09/05 00:19:05;;;;;;;0.00;0.00;;;17.60;99.90;;;;;;4936326;28;20044;-70
2023/09/05 00:21:31;;;;;;;0.17;0.17;;;17.50;99.90;;;;;;4922942;28;20060;-70
2023/09/05 00:24:22;;;;;;;0.28;0.28;;;17.50;99.90;;;;;;4931127;28;20446;-70
2023/09/05 00:26:47;;;;;;;0.10;0.10;;;17.50;99.90;;;;;;4958234;28;20136;-70
2023/09/05 00:29:13;;;;;;;0.30;0.30;;;17.50;99.90;;;;;;4937643;28;20069;-70
2023/09/05 00:31:40;;;;;;;5.20;0.43;;;17.50;99.90;;;;;;4951288;28;20045;-70
2023/09/05 00:34:06;;;;;;;0.10;0.10;;;17.50;99.90;;;;;;4958010;28;20104;-70
2023/09/05 00:36:31;;;;;;;0.52;0.15;;;17.50;99.90;;;;;;4931796;28;20479;-70
2023/09/05 00:38:57;;;;;;;0.10;0.10;;;17.50;99.90;;;;;;4912920;28;20395;-70
2023/09/05 00:41:22;;;;;;;0.10;0.10;;;17.50;99.90;;;;;;4908291;28;20044;-70
2023/09/05 00:43:49;;;;;;;0.25;0.25;;;17.50;99.90;;;;;;4909216;28;20490;-70
2023/09/05 00:46:16;;;;;;;0.55;0.38;;;17.50;99.90;;;;;;4924105;28;20492;-70
2023/09/05 00:48:42;;;;;;;0.43;0.43;;;17.50;99.90;;;;;;4969387;28;20469;-70
2023/09/05 00:51:09;;;;;;;1.35;0.55;;;17.50;99.90;;;;;;4949559;28;20059;-70
2023/09/05 00:53:35;;;;;;;0.43;0.28;;;17.50;99.90;;;;;;4933985;28;20043;-70
2023/09/05 00:56:00;;;;;;;0.22;0.22;;;17.60;99.90;;;;;;4910839;28;20041;-70
2023/09/05 00:58:26;;;;;;;0.45;0.45;;;17.50;99.90;;;;;;4943720;28;20060;-70
2023/09/05 01:00:52;;;;;;;0.10;0.10;;;17.50;99.90;;;;;;4951941;28;20098;-70
2023/09/05 01:03:17;;;;;;;0.10;0.10;;;17.50;99.90;;;;;;4925503;28;20427;-70
2023/09/05 01:05:47;;;;;;;0.10;0.10;;;17.50;99.90;;;;;;4936581;28;20078;-70
2023/09/05 01:08:23;;;;;;;2.08;0.30;;;17.50;99.90;;;;;;4944176;28;20046;-70
2023/09/05 01:10:58;;;;;;;1.55;0.73;;;17.50;99.90;;;;;;4945377;28;20055;-70
2023/09/05 01:13:28;;;;;;;4.68;1.38;;;17.50;99.90;;;;;;4930041;28;20280;-70
2023/09/05 01:15:54;;;;;;;0.10;0.10;;;17.50;99.90;;;;;;4948223;28;20044;-70
2023/09/05 01:18:23;;;;;;;1.52;0.77;;;17.50;99.90;;;;;;4952958;28;20417;-70
2023/09/05 01:21:19;;;;;;;1.77;1.67;;;17.50;99.90;;;;;;4950633;28;20478;-70
2023/09/05 01:23:49;;;;;;;0.10;0.10;;;17.40;99.90;;;;;;4903864;28;20053;-70
2023/09/05 01:26:16;;;;;;;0.20;0.20;;;17.40;99.90;;;;;;4931146;28;20033;-70
2023/09/05 01:28:44;;;;;;;0.32;0.30;;;17.30;99.90;;;;;;4905803;28;20072;-70
2023/09/05 01:31:10;;;;;;;0.08;0.08;;;17.30;99.90;;;;;;4936942;28;20052;-70
2023/09/05 01:33:38;;;;;;;0.05;0.05;;;17.30;99.90;;;;;;4913540;28;20058;-70
2023/09/05 01:36:04;;;;;;;0.80;0.55;;;17.30;99.90;;;;;;4913521;28;20040;-70
2023/09/05 01:38:30;;;;;;;0.93;0.65;;;17.20;99.90;;;;;;4931641;28;20044;-70
2023/09/05 01:40:55;;;;;;;0.80;0.22;;;17.20;99.90;;;;;;4935444;28;20044;-70
2023/09/05 01:43:21;;;;;;;0.08;0.08;;;17.20;99.90;;;;;;4921427;28;20139;-70
2023/09/05 01:45:46;;;;;;;0.75;0.75;;;17.10;99.90;;;;;;4910790;28;20045;-70
2023/09/05 01:48:12;;;;;;;0.17;0.17;;;17.10;99.90;;;;;;4926689;28;20048;-70
2023/09/05 01:50:38;;;;;;;1.55;0.32;;;17.10;99.90;;;;;;4962565;28;20055;-70
2023/09/05 01:53:03;;;;;;;0.75;0.75;;;17.20;99.90;;;;;;4915165;28;20059;-70
2023/09/05 01:55:29;;;;;;;1.15;0.75;;;17.10;99.90;;;;;;4951341;28;20044;-70
2023/09/05 01:57:54;;;;;;;0.08;0.08;;;17.10;99.90;;;;;;4957967;28;20073;-70
2023/09/05 02:00:21;;;;;;;1.90;0.65;;;17.10;99.90;;;;;;4922324;28;20051;-70
2023/09/05 02:02:47;;;;;;;0.20;0.20;;;17.00;99.90;;;;;;4910641;28;20054;-70
2023/09/05 02:05:12;;;;;;;3.40;0.40;;;17.00;99.90;;;;;;4931146;28;20072;-70
2023/09/05 02:07:38;;;;;;;0.25;0.25;;;17.00;99.90;;;;;;4940619;28;20741;-70
2023/09/05 02:10:06;;;;;;;0.15;0.15;;;17.00;99.90;;;;;;4909163;28;20051;-70
2023/09/05 02:12:32;;;;;;;1.15;0.35;;;17.00;99.90;;;;;;4932391;28;20064;-70
2023/09/05 02:15:00;;;;;;;0.30;0.30;;;17.00;99.90;;;;;;4984201;28;20540;-70
2023/09/05 02:17:30;;;;;;;0.00;0.00;;;17.00;99.90;;;;;;4939576;28;20457;-70
2023/09/05 02:19:59;;;;;;;0.17;0.17;;;16.90;99.90;;;;;;4978476;28;20081;-70
2023/09/05 02:22:25;;;;;;;1.10;0.55;;;16.90;99.90;;;;;;4931419;28;20045;-70
2023/09/05 02:24:50;;;;;;;0.20;0.20;;;16.90;99.90;;;;;;4936010;28;20044;-70
2023/09/05 02:27:16;;;;;;;1.88;0.55;;;16.90;99.90;;;;;;4916087;28;20066;-70
2023/09/05 02:29:42;;;;;;;0.50;0.50;;;16.90;99.90;;;;;;4936211;28;20082;-70
2023/09/05 02:32:07;;;;;;;0.10;0.10;;;16.90;99.90;;;;;;4951684;28;20053;-70
2023/09/05 02:34:33;;;;;;;0.25;0.25;;;16.90;99.90;;;;;;4932168;28;20549;-70
2023/09/05 02:36:59;;;;;;;0.10;0.10;;;16.90;99.90;;;;;;4951732;28;20106;-70
2023/09/05 02:39:25;;;;;;;0.30;0.30;;;16.90;99.90;;;;;;4956041;28;20121;-70
2023/09/05 02:41:50;;;;;;;0.38;0.38;;;16.90;99.90;;;;;;4917705;28;20131;-70
2023/09/05 02:44:16;;;;;;;2.17;0.95;;;16.90;99.90;;;;;;4942444;28;20056;-70
2023/09/05 02:46:42;;;;;;;0.40;0.38;;;16.80;99.90;;;;;;4933196;28;20051;-70
2023/09/05 02:49:08;;;;;;;0.40;0.40;;;16.80;99.90;;;;;;4912219;28;20061;-70
2023/09/05 02:51:33;;;;;;;2.28;0.93;;;16.90;99.90;;;;;;4969361;28;20069;-70
2023/09/05 02:54:00;;;;;;;0.63;0.32;;;16.80;99.90;;;;;;4937569;28;20055;-70
2023/09/05 02:56:25;;;;;;;0.20;0.20;;;16.90;99.90;;;;;;4929553;28;20087;-70
2023/09/05 02:58:51;;;;;;;3.70;1.17;;;16.80;99.90;;;;;;4924516;28;20065;-70
2023/09/05 03:01:17;;;;;;;0.28;0.28;;;16.80;99.90;;;;;;4914086;28;20055;-70
2023/09/05 03:03:43;;;;;;;4.43;0.38;;;16.80;99.90;;;;;;4967781;28;20762;-70
2023/09/05 03:06:14;;;;;;;0.30;0.30;;;16.80;99.90;;;;;;4969326;28;20123;-70
2023/09/05 03:08:42;;;;;;;0.17;0.17;;;16.80;99.90;;;;;;4920238;28;20048;-70
2023/09/05 03:11:08;;;;;;;0.22;0.22;;;16.70;99.90;;;;;;4921347;28;20088;-70
2023/09/05 03:13:34;;;;;;;0.38;0.38;;;16.70;99.90;;;;;;4952057;28;20068;-70
2023/09/05 03:16:00;;;;;;;2.65;0.75;;;16.70;99.90;;;;;;4927080;28;20052;-70
2023/09/05 03:18:25;;;;;;;0.63;0.63;;;16.70;99.90;;;;;;4928814;28;20044;-70
2023/09/05 03:20:51;;;;;;;0.40;0.40;;;16.60;99.90;;;;;;4908785;28;20099;-70
2023/09/05 03:23:18;;;;;;;0.65;0.65;;;16.60;99.90;;;;;;4915675;28;20036;-70
2023/09/05 03:25:44;;;;;;;1.00;0.30;;;16.60;99.90;;;;;;4910268;28;20044;-70
2023/09/05 03:28:12;;;;;;;0.25;0.20;;;16.60;99.90;;;;;;4936637;28;20038;-70
2023/09/05 03:30:39;;;;;;;1.48;1.15;;;16.60;99.90;;;;;;4914690;28;20040;-70
2023/09/05 03:33:06;;;;;;;0.08;0.08;;;16.60;99.90;;;;;;4919118;28;20047;-70
2023/09/05 03:35:32;;;;;;;0.20;0.20;;;16.50;99.90;;;;;;4925227;28;20143;-70
2023/09/05 03:37:58;;;;;;;0.10;0.10;;;16.50;99.90;;;;;;4911645;28;20619;-70
2023/09/05 03:40:23;;;;;;;4.53;0.82;;;16.50;99.90;;;;;;4914352;28;20123;-70
2023/09/05 03:42:49;;;;;;;0.10;0.10;;;16.50;99.90;;;;;;4927622;28;20037;-70
2023/09/05 03:45:15;;;;;;;0.35;0.35;;;16.50;99.90;;;;;;4929289;28;20045;-70
2023/09/05 03:47:40;;;;;;;0.45;0.45;;;16.40;99.90;;;;;;4931668;28;20122;-70
2023/09/05 03:50:07;;;;;;;0.38;0.35;;;16.50;99.90;;;;;;4948368;28;20489;-70
2023/09/05 03:52:32;;;;;;;0.10;0.10;;;16.40;99.90;;;;;;4931181;28;20042;-70
2023/09/05 03:54:58;;;;;;;0.32;0.32;;;16.40;99.90;;;;;;4911045;28;20048;-70
2023/09/05 03:57:24;;;;;;;2.25;1.00;;;16.40;99.90;;;;;;4916317;28;20055;-70
2023/09/05 03:59:49;;;;;;;3.25;0.60;;;16.30;99.90;;;;;;4941175;28;20034;-70
2023/09/05 04:02:15;;;;;;;0.10;0.10;;;16.30;99.90;;;;;;4962943;28;20077;-70
2023/09/05 04:04:41;;;;;;;0.00;0.00;;;16.30;99.90;;;;;;4934787;28;20040;-70
2023/09/05 04:07:07;;;;;;;0.28;0.28;;;16.40;99.90;;;;;;4939628;28;20056;-70
2023/09/05 04:09:32;;;;;;;0.03;0.03;;;16.30;99.90;;;;;;4958281;28;20112;-70
2023/09/05 04:11:58;;;;;;;0.30;0.30;;;16.30;99.90;;;;;;4943376;28;20041;-70
2023/09/05 04:14:23;;;;;;;0.43;0.43;;;16.30;99.90;;;;;;4908989;28;20130;-71
2023/09/05 04:16:49;;;;;;;0.15;0.15;;;16.20;99.90;;;;;;4965925;28;20037;-70
2023/09/05 04:19:15;;;;;;;0.17;0.17;;;16.20;99.90;;;;;;4923645;28;20048;-70
2023/09/05 04:21:40;;;;;;;0.38;0.38;;;16.30;99.90;;;;;;4927856;28;20055;-70
2023/09/05 04:24:06;;;;;;;0.20;0.15;;;16.10;99.90;;;;;;4919099;28;20051;-70
2023/09/05 04:26:33;;;;;;;0.50;0.50;;;16.10;99.90;;;;;;4904730;28;20563;-70
2023/09/05 04:29:00;;;;;;;0.30;0.30;;;16.10;99.90;;;;;;4922897;28;20456;-70
2023/09/05 04:31:25;;;;;;;0.28;0.28;;;16.10;99.90;;;;;;4918349;28;20058;-70
2023/09/05 04:33:53;;;;;;;0.10;0.10;;;16.10;99.90;;;;;;4932642;28;20131;-70
2023/09/05 04:36:19;;;;;;;0.20;0.20;;;16.20;99.90;;;;;;4908132;28;20823;-70
2023/09/05 04:38:45;;;;;;;0.30;0.28;;;16.10;99.90;;;;;;4942224;28;20056;-70
2023/09/05 04:41:11;;;;;;;0.73;0.55;;;16.10;99.90;;;;;;4928919;28;20043;-70
2023/09/05 04:43:37;;;;;;;0.10;0.10;;;16.10;99.90;;;;;;4901577;28;20048;-70
2023/09/05 04:46:03;;;;;;;0.80;0.52;;;16.00;99.90;;;;;;4939469;28;20088;-70
2023/09/05 04:48:29;;;;;;;0.35;0.35;;;16.10;99.90;;;;;;4952547;28;20042;-70
2023/09/05 04:50:55;;;;;;;0.38;0.35;;;16.10;99.90;;;;;;4916768;28;20066;-70
2023/09/05 04:53:21;;;;;;;0.08;0.08;;;16.10;99.90;;;;;;4972173;28;20093;-70
2023/09/05 04:55:48;;;;;;;0.77;0.60;;;16.00;99.90;;;;;;4937719;28;20460;-70
2023/09/05 04:58:14;;;;;;;0.47;0.47;;;16.00;99.90;;;;;;4928133;28;20119;-70
2023/09/05 05:00:41;;;;;;;0.30;0.30;;;16.00;99.90;;;;;;4959312;28;20143;-70
2023/09/05 05:03:06;;;;;;;1.88;1.08;;;16.00;99.90;;;;;;4914244;28;20075;-70
2023/09/05 05:05:32;;;;;;;0.05;0.05;;;16.00;99.90;;;;;;4911037;28;20261;-70
2023/09/05 05:07:58;;;;;;;1.40;1.13;;;16.00;99.90;;;;;;4938095;28;20042;-70
2023/09/05 05:10:23;;;;;;;0.50;0.22;;;16.00;99.90;;;;;;4906715;28;20068;-70
2023/09/05 05:12:49;;;;;;;3.03;1.50;;;16.00;99.90;;;;;;4922103;28;20111;-70
2023/09/05 05:15:15;;;;;;;0.38;0.30;;;16.00;99.90;;;;;;4919566;28;20048;-70
2023/09/05 05:17:40;;;;;;;0.15;0.15;;;16.00;99.90;;;;;;4903410;28;20718;-70
2023/09/05 05:20:07;;;;;;;0.85;0.85;;;16.10;99.90;;;;;;4920528;28;20059;-70
2023/09/05 05:22:33;;;;;;;0.57;0.55;;;16.10;99.90;;;;;;4907277;28;20049;-70
2023/09/05 05:24:59;;;;;;;2.30;0.50;;;16.00;99.90;;;;;;4955000;28;20044;-69
2023/09/05 05:27:25;;;;;;;0.40;0.38;;;16.00;99.90;;;;;;4932098;28;20131;-70
2023/09/05 05:29:52;;;;;;;2.00;1.17;;;16.00;99.90;;;;;;4909640;28;20044;-70
2023/09/05 05:32:18;;;;;;;0.43;0.43;;;16.10;99.90;;;;;;4933098;28;20470;-70
2023/09/05 05:34:48;;;;;;;0.20;0.20;;;16.00;99.90;;;;;;4907101;28;20088;-71
2023/09/05 05:37:17;;;;;;;0.08;0.08;;;16.10;99.90;;;;;;4926688;28;20052;-70
2023/09/05 05:39:43;;;;;;;0.28;0.28;;;16.10;99.90;;;;;;4910672;28;20086;-70
2023/09/05 05:42:09;;;;;;;0.95;0.55;;;16.10;99.90;;;;;;4949109;28;20048;-70
2023/09/05 05:44:34;;;;;;;0.00;0.00;;;16.10;99.90;;;;;;4924695;28;20496;-70
2023/09/05 05:47:00;;;;;;;2.47;0.77;;;16.10;99.90;;;;;;4935426;28;20052;-70
2023/09/05 05:49:29;;;;;;;0.65;0.55;;;16.20;99.90;;;;;;4924956;28;20040;-70
2023/09/05 05:51:58;;;;;;;0.20;0.20;;;16.20;99.90;;;;;;4952474;28;20037;-70
2023/09/05 05:54:25;;;;;;;0.30;0.22;;;16.20;99.90;;;;;;4943589;28;20449;-71
2023/09/05 05:56:55;;;;;;;3.50;0.80;;;16.30;99.90;;;;;;4918246;28;20064;-70
2023/09/05 05:59:24;;;;;;;0.10;0.10;;;16.30;99.90;;;;;;4906042;28;20495;-70
2023/09/05 06:01:52;;;;;;;0.30;0.30;;;16.40;99.90;;;;;;4916361;28;20094;-70
2023/09/05 06:04:21;;;;;;;0.65;0.30;;;16.40;99.90;;;;;;4908454;28;20075;-70
2023/09/05 06:06:50;;;;;;;0.45;0.38;;;16.40;99.90;;;;;;4946653;28;20129;-70
2023/09/05 06:09:18;;;;;;;0.00;0.00;;;16.50;99.90;;;;;;4906003;28;20497;-70
2023/09/05 06:11:45;;;;;;;0.30;0.30;;;16.50;99.90;;;;;;4945626;28;20063;-69
2023/09/05 06:14:11;;;;;;;0.10;0.10;;;16.60;99.90;;;;;;4931709;28;20073;-69
2023/09/05 06:16:37;;;;;;;0.20;0.20;;;16.60;99.90;;;;;;4926322;28;20521;-69
2023/09/05 06:19:02;;;;;;;0.75;0.65;;;16.60;99.90;;;;;;4922845;28;20507;-69
2023/09/05 06:21:28;;;;;;;0.00;0.00;;;16.70;99.90;;;;;;4925033;28;20046;-69
2023/09/05 06:23:53;;;;;;;0.20;0.20;;;16.70;99.90;;;;;;4921583;28;20507;-69
2023/09/05 06:26:19;;;;;;;3.00;1.85;;;16.70;99.90;;;;;;4909867;28;20057;-69
2023/09/05 06:28:45;;;;;;;3.28;0.85;;;16.80;99.90;;;;;;4907900;28;20062;-69
2023/09/05 06:31:12;;;;;;;0.20;0.20;;;16.80;99.90;;;;;;4954083;28;20112;-69
2023/09/05 06:33:37;;;;;;;0.47;0.47;;;16.90;99.90;;;;;;4912092;29;20048;-69
2023/09/05 06:36:07;;;;;;;0.40;0.35;;;16.90;99.90;;;;;;4927990;28;20055;-69
2023/09/05 06:38:33;;;;;;;1.38;1.08;;;16.90;99.90;;;;;;4901323;28;20041;-69
2023/09/05 06:41:06;;;;;;;0.75;0.38;;;17.00;99.90;;;;;;4907343;28;20559;-69
2023/09/05 06:43:32;;;;;;;0.20;0.20;;;17.10;99.90;;;;;;4908812;28;20044;-69
2023/09/05 06:46:07;;;;;;;0.38;0.38;;;17.10;99.90;;;;;;4914956;28;20400;-69
2023/09/05 06:48:38;;;;;;;1.45;0.65;;;17.20;99.90;;;;;;4925646;28;20049;-69
2023/09/05 06:51:04;;;;;;;0.00;0.00;;;17.30;99.90;;;;;;4924060;28;20040;-69
2023/09/05 06:53:31;;;;;;;3.63;0.68;;;17.30;99.90;;;;;;4955378;28;20086;-69
2023/09/05 06:55:56;;;;;;;0.00;0.00;;;17.30;99.90;;;;;;4967893;28;20059;-69
2023/09/05 06:58:24;;;;;;;0.10;0.10;;;17.40;99.90;;;;;;4944815;28;20052;-69
2023/09/05 07:00:54;;;;;;;0.38;0.38;;;17.50;99.90;;;;;;4936233;28;20068;-69
2023/09/05 07:03:21;;;;;;;0.35;0.35;;;17.50;99.90;;;;;;4964781;28;20042;-69
2023/09/05 07:05:46;;;;;;;0.00;0.00;;;17.60;99.90;;;;;;4959411;28;20092;-69
2023/09/05 07:08:12;;;;;;;0.40;0.40;;;17.60;99.90;;;;;;4925490;28;20470;-69
2023/09/05 07:10:38;;;;;;;0.00;0.00;;;17.60;99.90;;;;;;4912396;28;20045;-70
2023/09/05 07:13:03;;;;;;;0.00;0.00;;;17.80;99.90;;;;;;4957064;28;20037;-70
2023/09/05 07:15:29;;;;;;;0.52;0.43;;;17.80;99.90;;;;;;4970358;28;20036;-69
2023/09/05 07:17:55;;;;;;;2.42;0.55;;;17.90;99.90;;;;;;4995705;28;20042;-70
2023/09/05 07:20:20;;;;;;;0.28;0.20;;;17.90;99.90;;;;;;4916472;28;20048;-69
2023/09/05 07:22:46;;;;;;;0.22;0.13;;;17.90;99.90;;;;;;4948607;28;20065;-69
2023/09/05 07:25:11;;;;;;;0.00;0.00;;;18.00;99.90;;;;;;4911733;28;20052;-67
2023/09/05 07:27:37;;;;;;;0.30;0.28;;;18.00;99.90;;;;;;4968763;28;20058;-67
2023/09/05 07:30:03;;;;;;;0.05;0.05;;;18.10;99.90;;;;;;4933904;28;20390;-67
2023/09/05 07:32:28;;;;;;;0.00;0.00;;;18.20;99.90;;;;;;4917412;28;20040;-67
2023/09/05 07:34:55;;;;;;;1.00;0.68;;;18.30;99.90;;;;;;4912696;28;20064;-67
2023/09/05 07:37:20;;;;;;;0.00;0.00;;;18.40;99.90;;;;;;4931676;28;20096;-69
2023/09/05 07:39:49;;;;;;;0.10;0.10;;;18.40;99.90;;;;;;4920970;28;20047;-69
2023/09/05 07:42:15;;;;;;;0.00;0.00;;;18.50;99.90;;;;;;4913327;28;20051;-68
2023/09/05 07:44:41;;;;;;;0.00;0.00;;;18.50;99.90;;;;;;4929426;28;20101;-68
2023/09/05 07:47:07;;;;;;;0.00;0.00;;;18.60;99.90;;;;;;4971017;28;20129;-68
2023/09/05 07:49:36;;;;;;;0.20;0.20;;;18.60;99.90;;;;;;4953203;28;20131;-68
2023/09/05 07:52:04;;;;;;;0.00;0.00;;;18.70;99.90;;;;;;4927229;28;20040;-69
2023/09/05 07:54:29;;;;;;;0.00;0.00;;;18.80;99.90;;;;;;4919348;28;20148;-69
2023/09/05 07:56:55;;;;;;;0.80;0.40;;;18.80;99.90;;;;;;4942404;28;20124;-67
2023/09/05 07:59:20;;;;;;;0.10;0.10;;;18.90;99.90;;;;;;4954298;28;20123;-67
2023/09/05 08:01:46;;;;;;;1.08;0.68;;;19.00;99.90;;;;;;4951027;28;20059;-68
2023/09/05 08:04:12;;;;;;;0.00;0.00;;;19.10;99.90;;;;;;4917593;28;20458;-67
2023/09/05 08:06:37;;;;;;;0.15;0.15;;;19.10;99.90;;;;;;4965625;28;20041;-68
2023/09/05 08:09:03;;;;;;;0.00;0.00;;;19.20;99.90;;;;;;4924743;28;20044;-68
2023/09/05 08:11:29;;;;;;;0.05;0.05;;;19.30;99.90;;;;;;4937067;28;20381;-69
2023/09/05 08:13:54;;;;;;;0.22;0.22;;;19.40;99.90;;;;;;4932076;28;20056;-68
2023/09/05 08:16:20;;;;;;;0.10;0.10;;;19.50;99.90;;;;;;4936982;28;20066;-68
2023/09/05 08:18:45;;;;;;;0.00;0.00;;;19.50;99.90;;;;;;4917716;28;20095;-69
2023/09/05 08:21:11;;;;;;;0.00;0.00;;;19.60;99.90;;;;;;4944952;28;20050;-68
2023/09/05 08:23:37;;;;;;;0.00;0.00;;;19.70;99.90;;;;;;4925687;28;20051;-68
2023/09/05 08:26:02;;;;;;;0.00;0.00;;;19.80;99.90;;;;;;4965501;28;20560;-68
2023/09/05 08:28:32;;;;;;;0.00;0.00;;;19.90;99.90;;;;;;4935768;28;20044;-68
2023/09/05 08:30:59;;;;;;;0.15;0.10;;;20.00;99.90;;;;;;4912357;28;20120;-68
2023/09/05 08:33:26;;;;;;;0.30;0.15;;;20.10;99.90;;;;;;4932208;28;20948;-69
2023/09/05 08:35:52;;;;;;;0.00;0.00;;;20.10;99.90;;;;;;4919044;28;20044;-68
2023/09/05 08:38:18;;;;;;;0.22;0.20;;;20.20;99.90;;;;;;4938314;28;20057;-68
2023/09/05 08:40:45;;;;;;;0.00;0.00;;;20.30;99.90;;;;;;4966904;28;20038;-69
2023/09/05 08:43:11;;;;;;;0.00;0.00;;;20.40;99.90;;;;;;4968134;28;20135;-68
2023/09/05 08:45:39;;;;;;;0.22;0.22;;;20.50;99.90;;;;;;4911827;28;20091;-69
2023/09/05 08:48:05;;;;;;;0.05;0.05;;;20.50;99.90;;;;;;4907870;28;20058;-68
2023/09/05 08:50:33;;;;;;;0.00;0.00;;;20.60;99.90;;;;;;4925249;28;20045;-69
2023/09/05 08:53:10;;;;;;;0.00;0.00;;;20.80;99.90;;;;;;4957670;28;20051;-69
2023/09/05 08:55:37;;;;;;;0.10;0.10;;;20.90;99.90;;;;;;4955138;28;20045;-69
2023/09/05 08:58:03;;;;;;;0.00;0.00;;;21.00;99.90;;;;;;4904257;28;20080;-69
2023/09/05 09:00:29;;;;;;;0.65;0.32;;;21.10;99.90;;;;;;4924515;28;20466;-69
2023/09/05 09:02:55;;;;;;;0.00;0.00;;;21.30;99.90;;;;;;4965967;28;20120;-69
2023/09/05 09:05:21;;;;;;;0.10;0.10;;;22.00;99.90;;;;;;4965365;28;20058;-69
2023/09/05 09:07:46;;;;;;;0.00;0.00;;;23.10;99.90;;;;;;4953251;28;20050;-69
2023/09/05 09:10:21;;;;;;;0.10;0.10;;;24.00;99.90;;;;;;4930747;28;20038;-69
2023/09/05 09:12:54;;;;;;;0.00;0.00;;;24.80;99.90;;;;;;4979705;28;20083;-70
2023/09/05 09:15:24;;;;;;;0.00;0.00;;;25.50;99.90;;;;;;4926771;28;20095;-70
2023/09/05 09:17:51;;;;;;;0.00;0.00;;;26.10;99.90;;;;;;4918235;28;20400;-70
2023/09/05 09:20:19;;;;;;;0.00;0.00;;;26.70;99.90;;;;;;4906741;28;20050;-70
2023/09/05 09:22:49;;;;;;;0.00;0.00;;;27.00;99.90;;;;;;4938645;28;20456;-71
2023/09/05 09:25:23;;;;;;;0.00;0.00;;;27.20;99.90;;;;;;4913995;28;20044;-72
2023/09/05 09:27:54;;;;;;;;;;;27.60;99.90;;;;;;4939019;28;20059;-71
2023/09/05 09:30:24;;;;;;;0.00;0.00;;;27.90;99.90;;;;;;4913428;28;19923;-72
2023/09/05 09:32:54;;;;;;;0.05;0.05;;;28.00;99.90;;;;;;4925220;28;20094;-72
2023/09/05 09:35:21;;;;;;;0.00;0.00;;;28.20;99.90;;;;;;4924309;28;20078;-72
2023/09/05 09:37:47;;;;;;;0.13;0.13;;;28.50;99.90;;;;;;4925016;28;20067;-73
2023/09/05 09:40:17;;;;;;;0.00;0.00;;;28.40;99.90;;;;;;4924492;28;20118;-72
2023/09/05 09:42:48;;;;;;;0.00;0.00;;;28.60;99.90;;;;;;4931213;28;20044;-73
2023/09/05 09:45:15;;;;;;;0.08;0.08;;;28.70;99.90;;;;;;4916379;28;20388;-71
2023/09/05 09:47:47;;;;;;;0.10;0.10;;;28.60;99.90;;;;;;4899609;28;20056;-71
2023/09/05 09:50:13;;;;;;;0.33;0.33;;;28.80;99.90;;;;;;4903315;28;20054;-71
2023/09/05 09:52:48;;;;;;;0.10;0.10;;;28.90;99.90;;;;;;4955760;28;20045;-71
2023/09/05 09:55:14;;;;;;;0.00;0.00;;;29.00;99.90;;;;;;4952922;28;20044;-71
2023/09/05 09:58:01;;;;;;;0.10;0.10;;;29.10;99.90;;;;;;4935976;28;20051;-71
2023/09/05 10:00:28;;;;;;;0.00;0.00;;;29.20;99.90;;;;;;4911311;28;20055;-71
2023/09/05 10:02:55;;;;;;;0.00;0.00;;;29.40;99.90;;;;;;4912053;28;20475;-71
2023/09/05 10:05:23;;;;;;;0.00;0.00;;;29.50;99.90;;;;;;4924235;28;20478;-72
2023/09/05 10:07:51;;;;;;;0.00;0.00;;;29.50;99.90;;;;;;4938905;28;20117;-72
2023/09/05 10:10:18;;;;;;;0.00;0.00;;;29.40;99.90;;;;;;4917305;28;20087;-72
2023/09/05 10:12:45;;;;;;;0.10;0.10;;;29.50;99.90;;;;;;4922144;28;20049;-72
2023/09/05 10:15:13;;;;;;;0.03;0.03;;;29.20;99.90;;;;;;4906566;28;20079;-72
2023/09/05 10:17:41;;;;;;;0.00;0.00;;;29.00;99.90;;;;;;4915779;28;20048;-72
2023/09/05 10:20:07;;;;;;;0.10;0.08;;;28.80;99.90;;;;;;4932801;28;20049;-72
2023/09/05 10:22:39;;;;;;;0.00;0.00;;;28.70;99.90;;;;;;4928432;28;20626;-72
2023/09/05 10:25:07;;;;;;;0.00;0.00;;;28.70;99.90;;;;;;4911490;28;20044;-72
2023/09/05 10:27:33;;;;;;;34.38;1.25;;;28.60;99.90;;;;;;4909943;28;20083;-72
2023/09/05 10:29:59;;;;;;;0.00;0.00;;;28.50;99.90;;;;;;4930410;28;20036;-72
2023/09/05 10:32:25;;;;;;;0.10;0.10;;;28.50;99.90;;;;;;4928225;28;20046;-72
2023/09/05 10:34:51;;;;;;;4.10;0.43;;;28.50;99.90;;;;;;4907205;28;20049;-71
2023/09/05 10:37:21;;;;;;;0.00;0.00;;;28.30;99.90;;;;;;4934754;28;20121;-72
2023/09/05 10:39:48;;;;;;;0.17;0.13;;;28.40;99.90;;;;;;4912530;28;20619;-72
2023/09/05 10:42:15;;;;;;;0.00;0.00;;;28.40;99.90;;;;;;4938829;28;20083;-72
2023/09/05 10:44:47;;;;;;;0.35;0.25;;;28.30;99.90;;;;;;4908759;28;20138;-72
2023/09/05 10:47:29;;;;;;;0.00;0.00;;;28.30;99.90;;;;;;4921593;28;20080;-72
2023/09/05 10:49:59;;;;;;;0.00;0.00;;;28.30;99.90;;;;;;4914959;28;20122;-72
2023/09/05 10:52:27;;;;;;;0.00;0.00;;;28.40;99.90;;;;;;4922060;28;20413;-71
2023/09/05 10:54:53;;;;;;;0.00;0.00;;;28.40;99.90;;;;;;4950496;28;20404;-71
2023/09/05 10:57:39;;;;;;;0.73;0.30;;;28.40;99.90;;;;;;4922607;28;20056;-71
2023/09/05 11:00:15;;;;;;;0.10;0.10;;;28.50;99.90;;;;;;4919968;28;20131;-71
2023/09/05 11:02:42;;;;;;;0.73;0.43;;;28.60;99.90;;;;;;4943725;28;20049;-72
2023/09/05 11:05:12;;;;;;;0.00;0.00;;;28.60;99.90;;;;;;4908606;28;20044;-71
2023/09/05 11:07:42;;;;;;;0.00;0.00;;;28.70;99.90;;;;;;4913102;28;20040;-71
2023/09/05 11:10:24;;;;;;;0.30;0.20;;;28.70;99.90;;;;;;4947463;28;20488;-72
2023/09/05 11:12:50;;;;;;;0.00;0.00;;;28.80;99.90;;;;;;4945359;28;20044;-71
2023/09/05 11:15:29;;;;;;;0.28;0.28;;;29.00;99.90;;;;;;4942716;28;20075;-71
2023/09/05 11:18:00;;;;;;;0.75;0.45;;;29.10;99.90;;;;;;4928694;28;20046;-70
2023/09/05 11:20:39;;;;;;;0.10;0.10;;;29.20;99.90;;;;;;4913831;28;20222;-71
2023/09/05 11:23:16;;;;;;;0.00;0.00;;;29.40;99.90;;;;;;4932188;28;20164;-71
2023/09/05 11:25:53;;;;;;;0.10;0.05;;;29.50;99.90;;;;;;4906274;28;20080;-71
2023/09/05 11:28:22;;;;;;;0.00;0.00;;;29.50;99.90;;;;;;4949422;28;20042;-71
2023/09/05 11:30:51;;;;;;;0.35;0.35;;;29.70;99.90;;;;;;4916798;28;20106;-71
2023/09/05 11:33:17;;;;;;;0.00;0.00;;;29.60;99.90;;;;;;4909248;28;20055;-71
2023/09/05 11:35:44;;;;;;;0.00;0.00;;;29.70;99.90;;;;;;4927273;28;20052;-71
2023/09/05 11:38:11;;;;;;;0.00;0.00;;;29.80;99.90;;;;;;4941926;28;20522;-71
2023/09/05 11:40:38;;;;;;;0.00;0.00;;;29.90;99.90;;;;;;4935607;28;20047;-71
2023/09/05 11:43:06;;;;;;;0.00;0.00;;;30.10;99.90;;;;;;4919048;28;20050;-71
2023/09/05 11:45:34;;;;;;;0.10;0.10;;;30.20;99.90;;;;;;4944275;28;20481;-71
2023/09/05 11:48:03;;;;;;;0.10;0.10;;;30.30;99.90;;;;;;4919583;28;20071;-71
2023/09/05 11:50:31;;;;;;;0.00;0.00;;;30.40;99.90;;;;;;4952148;28;20053;-71
2023/09/05 11:52:59;;;;;;;0.00;0.00;;;30.60;99.90;;;;;;4933391;28;20052;-71
2023/09/05 11:55:25;;;;;;;0.00;0.00;;;30.70;99.90;;;;;;4973883;28;20046;-71
2023/09/05 11:57:52;;;;;;;0.70;0.30;;;30.80;99.90;;;;;;4928106;28;20050;-71
2023/09/05 12:00:20;;;;;;;0.00;0.00;;;31.00;99.90;;;;;;4954909;28;20094;-71
2023/09/05 12:02:45;;;;;;;0.00;0.00;;;31.10;99.90;;;;;;4912439;28;20048;-71
2023/09/05 12:05:12;;;;;;;0.00;0.00;;;31.20;99.90;;;;;;4937508;28;20058;-71
2023/09/05 12:07:38;;;;;;;0.03;0.03;;;31.20;99.90;;;;;;4950865;28;20428;-71
2023/09/05 12:10:04;;;;;;;0.00;0.00;;;31.20;99.90;;;;;;4930228;28;20048;-71
2023/09/05 12:12:30;;;;;;;0.10;0.03;;;31.30;99.90;;;;;;4917195;28;20052;-70
2023/09/05 12:14:57;;;;;;;0.00;0.00;;;31.50;99.90;;;;;;4921690;28;20478;-71
2023/09/05 12:17:27;;;;;;;0.00;0.00;;;31.60;99.90;;;;;;4919329;28;20083;-72
2023/09/05 12:19:55;;;;;;;0.30;0.20;;;31.70;99.90;;;;;;4938043;28;20207;-71
2023/09/05 12:22:20;;;;;;;0.00;0.00;;;31.80;99.90;;;;;;4931394;28;20048;-71
2023/09/05 12:24:46;;;;;;;0.43;0.30;;;31.90;99.90;;;;;;4911994;28;20044;-71
2023/09/05 12:27:24;;;;;;;0.52;0.43;;;32.00;99.90;;;;;;4933673;28;20045;-71
2023/09/05 12:29:52;;;;;;;0.13;0.00;;;32.10;99.90;;;;;;4952086;28;20049;-71
2023/09/05 12:32:17;;;;;;;0.00;0.00;;;32.20;99.90;;;;;;4935317;28;20670;-73
2023/09/05 12:34:43;;;;;;;0.13;0.10;;;32.20;99.90;;;;;;4935791;28;20138;-72
2023/09/05 12:37:09;;;;;;;0.00;0.00;;;32.40;99.90;;;;;;4923549;28;20051;-72
2023/09/05 12:39:34;;;;;;;0.00;0.00;;;32.40;99.50;;;;;;4909666;28;20090;-72
2023/09/05 12:42:00;;;;;;;0.00;0.00;;;32.50;99.90;;;;;;4927647;28;20082;-71
2023/09/05 12:44:29;;;;;;;0.20;0.20;;;32.50;98.80;;;;;;4916408;28;20040;-71
2023/09/05 12:46:55;;;;;;;0.10;0.10;;;32.80;99.90;;;;;;4913649;28;20180;-71
2023/09/05 12:49:20;;;;;;;0.00;0.00;;;33.00;99.90;;;;;;4935244;28;20044;-71